CDT,Max TemperatureF,Mean TemperatureF,Min TemperatureF,Max Dew PointF,MeanDew PointF,Min DewpointF,Max Humidity, Mean Humidity, Min Humidity, Max Sea Level PressureIn, Mean Sea Level PressureIn, Min Sea Level PressureIn, Max VisibilityMiles, Mean VisibilityMiles, Min VisibilityMiles, Max Wind SpeedMPH, Mean Wind SpeedMPH, Max Gust SpeedMPH,PrecipitationIn, CloudCover, Events, WindDirDegrees
2012-3-1,57,42,27,32,28,23,86,60,32,29.91,29.76,29.57,10,10,7,15,9,22,0.00,0,,156
2012-3-2,41,37,32,34,32,27,93,86,70,29.83,29.60,29.43,10,6,1,25,14,36,0.03,6,Rain-Snow,318
2012-3-3,39,33,27,23,21,18,74,62,46,29.94,29.89,29.83,10,10,10,21,14,30,0.00,5,,285
2012-3-4,34,28,21,28,23,17,93,79,52,30.16,29.96,29.87,10,7,1,14,6,,0.01,6,Snow,339
2012-3-5,45,32,19,24,21,15,89,63,37,30.41,30.27,30.10,10,10,10,15,8,23,0.00,0,,218
2012-3-6,73,58,43,36,28,23,49,33,17,30.08,29.94,29.84,10,10,10,30,19,44,0.00,0,,193
2012-3-7,69,58,46,52,45,37,93,57,42,29.93,29.88,29.82,10,9,2,30,20,43,0.09,5,Rain,202
2012-3-8,45,39,33,43,29,21,93,71,42,30.43,30.20,29.96,10,8,2,23,16,30,0.40,4,Rain,308
2012-3-9,48,39,30,25,18,9,73,46,23,30.60,30.52,30.42,10,10,10,12,7,,0.00,0,,14
2012-3-10,63,49,35,28,24,19,54,41,25,30.46,30.33,30.22,10,10,10,20,10,28,0.00,0,,179
2012-3-11,62,49,36,52,40,25,93,68,33,30.22,30.05,29.88,10,8,2,21,12,30,0.15,5,Rain,156
2012-3-12,72,63,53,54,52,49,94,81,44,29.95,29.84,29.77,10,10,6,20,11,28,0.04,5,Rain,203
2012-3-13,78,60,42,52,47,39,100,72,30,30.09,30.03,29.97,10,7,0,12,3,,0.00,0,Fog,162
2012-3-14,81,70,60,61,57,49,78,64,47,30.00,29.95,29.90,10,10,10,23,13,31,0.00,2,,206
2012-3-15,81,70,60,62,58,53,83,69,49,30.05,30.01,29.94,10,10,10,17,9,25,0.02,2,Rain-Thunderstorm,216
2012-3-16,78,67,57,60,57,51,81,69,54,30.04,30.00,29.94,10,10,10,20,10,25,0.00,0,,176
2012-3-17,79,68,60,61,56,50,90,71,51,30.02,29.97,29.92,10,10,6,16,9,24,0.00,1,,170
2012-3-18,80,68,57,61,57,54,90,67,47,30.00,29.94,29.89,10,10,10,17,12,26,0.00,3,,171
2012-3-19,80,72,64,63,59,52,88,67,45,29.93,29.84,29.74,10,10,9,21,11,31,0.02,4,Rain-Thunderstorm,159
2012-3-20,81,68,57,58,54,48,90,65,32,29.97,29.87,29.81,10,10,9,23,10,33,0.01,4,Rain,176
2012-3-21,78,68,57,57,54,49,87,62,37,30.00,29.95,29.91,10,10,10,20,7,26,0.00,3,,113
2012-3-22,71,61,51,57,53,50,94,86,57,30.04,29.98,29.91,10,8,1,15,9,,0.19,6,Rain,146
2012-3-23,66,57,48,53,50,45,100,86,48,29.95,29.89,29.77,10,5,0,16,4,23,0.01,4,Fog-Rain-Thunderstorm,83
2012-3-24,70,57,48,57,53,47,93,82,66,29.97,29.89,29.80,10,7,4,13,6,,0.01,5,Rain,310
2012-3-25,75,62,48,57,52,46,100,82,48,30.09,30.04,29.98,10,5,0,9,5,,0.01,2,Fog,342
2012-3-26,64,57,50,51,42,34,86,58,41,30.22,30.13,30.06,10,10,9,21,9,28,0.00,1,,101
2012-3-27,80,64,50,55,47,37,66,53,38,30.06,29.96,29.83,10,10,10,23,15,31,0.00,1,,191
2012-3-28,75,64,53,56,44,37,75,49,28,30.03,29.97,29.88,10,10,10,10,6,,0.00,1,,328
2012-3-29,57,54,50,50,45,36,86,74,44,30.05,29.94,29.80,10,9,3,17,9,29,0.27,4,Rain,107
2012-3-30,70,60,51,58,52,46,92,74,61,29.89,29.77,29.67,10,10,6,15,11,20,0.00,1,,325
2012-3-31,72,60,48,55,50,44,87,76,57,29.93,29.85,29.72,10,6,3,12,8,,0.00,3,,130